createdAt,value
2023-04-29T00:01:06.758Z,13.17
2023-04-29T00:03:33.754Z,12.83
2023-04-29T00:06:01.242Z,13.30
2023-04-29T00:08:28.389Z,12.03
2023-04-29T00:10:55.629Z,12.33
2023-04-29T00:13:22.523Z,11.60
2023-04-29T00:15:49.468Z,10.90
2023-04-29T00:18:16.278Z,10.63
2023-04-29T00:20:43.693Z,10.80
2023-04-29T00:23:11.103Z,10.57
2023-04-29T00:25:39.247Z,10.90
2023-04-29T00:28:06.413Z,10.57
2023-04-29T00:30:34.473Z,11.70
2023-04-29T00:33:01.337Z,11.03
2023-04-29T00:35:29.462Z,11.30
2023-04-29T00:37:56.189Z,11.40
2023-04-29T00:40:22.971Z,11.67
2023-04-29T00:42:49.723Z,11.30
2023-04-29T00:45:16.624Z,10.63
2023-04-29T00:47:44.130Z,11.80
2023-04-29T00:50:11.223Z,12.20
2023-04-29T00:52:38.401Z,12.70
2023-04-29T00:55:07.089Z,12.60
2023-04-29T00:57:34.742Z,13.57
2023-04-29T01:00:01.562Z,13.07
2023-04-29T01:02:28.839Z,13.83
2023-04-29T01:04:55.903Z,14.97
2023-04-29T01:07:28.868Z,15.77
2023-04-29T01:10:02.070Z,14.13
2023-04-29T01:12:36.851Z,15.93
2023-04-29T01:15:05.781Z,15.63
2023-04-29T01:17:38.099Z,15.40
2023-04-29T01:20:06.929Z,16.70
2023-04-29T01:22:33.989Z,16.67
2023-04-29T01:25:01.000Z,17.17
2023-04-29T01:27:29.972Z,16.10
2023-04-29T01:30:27.845Z,17.43
2023-04-29T01:33:02.256Z,17.63
2023-04-29T01:35:37.074Z,18.73
2023-04-29T01:38:14.980Z,18.20
2023-04-29T01:40:59.361Z,18.27
2023-04-29T01:43:30.164Z,20.10
2023-04-29T01:46:06.793Z,18.77
2023-04-29T01:48:33.628Z,19.53
2023-04-29T01:51:01.549Z,19.67
2023-04-29T01:53:28.321Z,18.57
2023-04-29T01:55:55.477Z,19.33
2023-04-29T01:58:46.903Z,19.23
2023-04-29T02:01:42.848Z,18.77
2023-04-29T02:04:09.729Z,20.53
2023-04-29T02:06:37.227Z,19.23
2023-04-29T02:09:04.947Z,18.83
2023-04-29T02:11:33.937Z,18.80
2023-04-29T02:14:01.801Z,20.53
2023-04-29T02:16:29.064Z,18.37
2023-04-29T02:18:59.162Z,17.77
2023-04-29T02:21:27.678Z,19.13
2023-04-29T02:23:54.772Z,17.30
2023-04-29T02:26:24.219Z,18.83
2023-04-29T02:28:52.681Z,19.47
2023-04-29T02:31:21.163Z,19.27
2023-04-29T02:33:48.946Z,19.77
2023-04-29T02:36:16.003Z,18.67
2023-04-29T02:38:43.714Z,18.97
2023-04-29T02:41:10.382Z,19.83
2023-04-29T02:43:37.060Z,20.27
2023-04-29T02:46:03.868Z,20.43
2023-04-29T02:48:34.006Z,19.67
2023-04-29T02:51:00.787Z,20.33
2023-04-29T02:53:27.798Z,19.13
2023-04-29T02:55:54.717Z,19.77
2023-04-29T02:58:21.535Z,19.63
2023-04-29T03:00:48.284Z,23.87
2023-04-29T03:03:15.237Z,26.90
2023-04-29T03:05:42.150Z,29.10
2023-04-29T03:08:10.474Z,29.07
2023-04-29T03:10:40.543Z,29.33
2023-04-29T03:13:08.038Z,31.13
2023-04-29T03:15:36.569Z,31.50
2023-04-29T03:18:05.051Z,31.97
2023-04-29T03:20:33.856Z,32.73
2023-04-29T03:23:02.878Z,32.30
2023-04-29T03:25:30.368Z,32.10
2023-04-29T03:27:57.550Z,34.17
2023-04-29T03:30:24.588Z,34.17
2023-04-29T03:32:55.736Z,33.43
2023-04-29T03:35:22.549Z,32.63
2023-04-29T03:38:27.467Z,34.37
2023-04-29T03:40:55.144Z,34.00
2023-04-29T03:43:21.960Z,36.37
2023-04-29T03:45:49.331Z,35.47
2023-04-29T03:48:20.246Z,33.53
2023-04-29T03:50:47.493Z,36.97
2023-04-29T03:53:14.803Z,38.23
2023-04-29T03:55:41.684Z,38.20
2023-04-29T03:58:09.815Z,38.90
2023-04-29T04:00:36.664Z,37.03
2023-04-29T04:03:09.452Z,35.73
2023-04-29T04:05:38.350Z,36.27
2023-04-29T04:08:09.098Z,36.80
2023-04-29T04:10:55.051Z,37.67
2023-04-29T04:13:32.091Z,35.77
2023-04-29T04:15:59.254Z,39.93
2023-04-29T04:18:26.383Z,41.50
2023-04-29T04:20:53.142Z,41.30
2023-04-29T04:23:20.262Z,42.07
2023-04-29T04:25:50.171Z,44.70
2023-04-29T04:28:36.859Z,45.73
2023-04-29T04:31:09.162Z,45.57
2023-04-29T04:33:36.510Z,43.87
2023-04-29T04:36:03.279Z,44.00
2023-04-29T04:38:30.100Z,42.60
2023-04-29T04:40:57.000Z,39.83
2023-04-29T04:43:35.725Z,42.10
2023-04-29T04:46:13.733Z,39.73
2023-04-29T04:48:48.827Z,34.13
2023-04-29T04:51:16.579Z,36.50
2023-04-29T04:53:43.421Z,33.93
2023-04-29T04:56:18.442Z,33.67
2023-04-29T04:58:45.190Z,32.87
2023-04-29T05:01:12.003Z,36.27
2023-04-29T05:03:38.866Z,32.07
2023-04-29T05:06:05.935Z,31.60
2023-04-29T05:08:33.045Z,32.03
2023-04-29T05:11:02.461Z,30.17
2023-04-29T05:13:29.139Z,28.30
2023-04-29T05:15:56.430Z,28.13
2023-04-29T05:18:27.025Z,28.00
2023-04-29T05:20:54.199Z,24.47
2023-04-29T05:23:21.069Z,24.13
2023-04-29T05:25:47.920Z,23.13
2023-04-29T05:28:16.815Z,23.87
2023-04-29T05:30:44.777Z,23.87
2023-04-29T05:33:12.424Z,23.27
2023-04-29T05:35:39.606Z,22.33
2023-04-29T05:38:06.321Z,22.63
2023-04-29T05:40:50.300Z,21.30
2023-04-29T05:43:25.692Z,21.90
2023-04-29T05:45:53.264Z,21.73
2023-04-29T05:48:20.138Z,21.73
2023-04-29T05:50:48.428Z,21.33
2023-04-29T05:53:15.588Z,20.50
2023-04-29T05:55:45.199Z,20.23
2023-04-29T05:58:12.820Z,19.87
2023-04-29T06:00:39.768Z,21.43
2023-04-29T06:03:13.104Z,21.33
2023-04-29T06:05:40.709Z,20.93
2023-04-29T06:08:30.979Z,20.20
2023-04-29T06:11:23.816Z,20.17
2023-04-29T06:13:51.095Z,18.77
2023-04-29T06:16:18.081Z,19.70
2023-04-29T06:18:44.850Z,19.93
2023-04-29T06:21:13.867Z,19.20
2023-04-29T06:23:40.938Z,18.87
2023-04-29T06:26:16.027Z,19.10
2023-04-29T06:28:42.770Z,20.93
2023-04-29T06:31:09.646Z,19.53
2023-04-29T06:33:36.410Z,19.13
2023-04-29T06:36:04.601Z,19.43
2023-04-29T06:38:46.243Z,20.13
2023-04-29T06:41:32.372Z,19.80
2023-04-29T06:44:09.387Z,20.07
2023-04-29T06:46:44.826Z,19.47
2023-04-29T06:49:17.998Z,20.43
2023-04-29T06:51:44.792Z,20.40
2023-04-29T06:54:11.512Z,20.83
2023-04-29T06:56:39.414Z,19.67
2023-04-29T06:59:06.339Z,20.90
2023-04-29T07:01:35.592Z,21.30
2023-04-29T07:04:02.665Z,19.57
2023-04-29T07:06:29.690Z,20.07
2023-04-29T07:08:57.142Z,20.07
2023-04-29T07:11:25.016Z,20.17
2023-04-29T07:13:55.352Z,19.23
2023-04-29T07:16:22.424Z,19.10
2023-04-29T07:18:49.643Z,19.47
2023-04-29T07:21:16.446Z,20.47
2023-04-29T07:23:44.266Z,20.97
2023-04-29T07:26:15.880Z,18.73
2023-04-29T07:28:44.967Z,18.23
2023-04-29T07:31:12.620Z,17.13
2023-04-29T07:33:39.520Z,18.77
2023-04-29T07:36:07.534Z,17.67
2023-04-29T07:38:34.952Z,17.27
2023-04-29T07:41:01.748Z,18.77
2023-04-29T07:43:28.948Z,17.47
2023-04-29T07:45:56.023Z,16.77
2023-04-29T07:48:23.158Z,17.10
2023-04-29T07:50:49.973Z,16.67
2023-04-29T07:53:18.335Z,15.47
2023-04-29T07:55:45.135Z,16.73
2023-04-29T07:58:12.623Z,16.40
2023-04-29T08:00:39.691Z,16.83
2023-04-29T08:03:06.670Z,15.53
2023-04-29T08:05:34.496Z,16.23
2023-04-29T08:08:01.430Z,13.27
2023-04-29T08:10:28.142Z,15.27
2023-04-29T08:12:54.822Z,15.07
2023-04-29T08:15:22.278Z,15.03
2023-04-29T08:17:48.981Z,16.97
2023-04-29T08:20:15.819Z,16.53
2023-04-29T08:22:42.901Z,16.83
2023-04-29T08:25:10.577Z,17.47
2023-04-29T08:27:37.333Z,17.77
2023-04-29T08:30:04.759Z,17.10
2023-04-29T08:32:32.405Z,16.37
2023-04-29T08:34:59.473Z,17.37
2023-04-29T08:37:26.615Z,18.07
2023-04-29T08:39:53.302Z,19.03
2023-04-29T08:42:28.523Z,16.23
2023-04-29T08:44:55.463Z,17.03
2023-04-29T08:47:23.430Z,16.97
2023-04-29T08:49:50.293Z,18.43
2023-04-29T08:52:17.118Z,16.73
2023-04-29T08:54:43.934Z,16.93
2023-04-29T08:57:11.775Z,15.70
2023-04-29T08:59:38.458Z,16.73
2023-04-29T09:02:07.757Z,16.33
2023-04-29T09:04:53.239Z,16.27
2023-04-29T09:07:20.448Z,15.90
2023-04-29T09:09:47.864Z,16.20
2023-04-29T09:12:14.556Z,17.17
2023-04-29T09:14:41.497Z,16.80
2023-04-29T09:17:08.270Z,17.00
2023-04-29T09:19:35.477Z,15.47
2023-04-29T09:22:03.298Z,15.97
2023-04-29T09:24:30.725Z,17.00
2023-04-29T09:26:58.833Z,17.10
2023-04-29T09:29:25.543Z,15.10
2023-04-29T09:31:56.245Z,16.13
2023-04-29T09:34:33.300Z,17.07
2023-04-29T09:37:00.057Z,16.80
2023-04-29T09:39:27.330Z,16.30
2023-04-29T09:41:54.483Z,17.13
2023-04-29T09:44:22.612Z,16.03
2023-04-29T09:47:03.305Z,15.40
2023-04-29T09:49:31.306Z,15.53
2023-04-29T09:51:59.509Z,14.97
2023-04-29T09:54:28.695Z,14.90
2023-04-29T09:56:56.148Z,14.17
2023-04-29T09:59:23.797Z,13.13
2023-04-29T10:01:54.999Z,13.40
2023-04-29T10:04:23.334Z,11.93
2023-04-29T10:06:51.621Z,11.30
2023-04-29T10:09:19.181Z,9.80
2023-04-29T10:11:46.695Z,9.17
2023-04-29T10:14:15.776Z,9.37
2023-04-29T10:16:59.641Z,8.60
2023-04-29T10:19:30.993Z,8.67
2023-04-29T10:21:58.930Z,8.57
2023-04-29T10:24:25.839Z,8.60
2023-04-29T10:26:53.675Z,8.33
2023-04-29T10:29:21.200Z,8.43
2023-04-29T10:31:48.906Z,7.00
2023-04-29T10:34:17.187Z,7.13
2023-04-29T10:36:44.619Z,8.50
2023-04-29T10:39:15.183Z,8.77
2023-04-29T10:41:49.173Z,8.60
2023-04-29T10:44:16.054Z,8.43
2023-04-29T10:46:42.865Z,9.13
2023-04-29T10:49:10.835Z,9.27
2023-04-29T10:51:40.794Z,9.20
2023-04-29T10:54:14.778Z,9.83
2023-04-29T10:56:47.913Z,9.80
2023-04-29T10:59:15.406Z,10.13
2023-04-29T11:01:49.616Z,10.37
2023-04-29T11:04:17.247Z,10.43
2023-04-29T11:06:48.008Z,11.13
2023-04-29T11:09:16.249Z,11.80
2023-04-29T11:11:44.244Z,12.30
2023-04-29T11:14:12.651Z,11.13
2023-04-29T11:16:47.182Z,11.77
2023-04-29T11:19:15.802Z,12.33
2023-04-29T11:21:42.881Z,11.17
2023-04-29T11:24:09.641Z,11.87
2023-04-29T11:26:36.658Z,12.00
2023-04-29T11:29:04.979Z,12.37
2023-04-29T11:31:32.474Z,12.00
2023-04-29T11:33:59.834Z,10.57
2023-04-29T11:36:27.482Z,12.60
2023-04-29T11:38:54.309Z,11.70
2023-04-29T11:41:22.035Z,12.87
2023-04-29T11:43:55.145Z,12.73
2023-04-29T11:46:21.923Z,12.80
2023-04-29T11:48:49.154Z,13.27
2023-04-29T11:51:16.599Z,12.30
2023-04-29T11:53:43.499Z,14.27
2023-04-29T11:56:10.881Z,14.50
2023-04-29T11:58:37.821Z,12.67
2023-04-29T12:01:04.831Z,14.37
2023-04-29T12:03:32.709Z,14.93
2023-04-29T12:05:59.981Z,14.03
2023-04-29T12:08:27.955Z,14.40
2023-04-29T12:10:55.914Z,15.27
2023-04-29T12:13:29.743Z,15.10
2023-04-29T12:15:57.172Z,13.90
2023-04-29T12:18:24.200Z,14.43
2023-04-29T12:20:56.055Z,13.67
2023-04-29T12:23:23.527Z,13.27
2023-04-29T12:25:58.222Z,13.50
2023-04-29T12:28:25.383Z,15.33
2023-04-29T12:30:54.379Z,15.10
2023-04-29T12:33:24.651Z,14.97
2023-04-29T12:35:52.031Z,14.90
2023-04-29T12:38:27.796Z,14.87
2023-04-29T12:40:54.985Z,15.83
2023-04-29T12:43:26.540Z,16.03
2023-04-29T12:45:54.534Z,13.67
2023-04-29T12:48:29.404Z,13.70
2023-04-29T12:50:58.664Z,14.73
2023-04-29T12:53:26.376Z,15.17
2023-04-29T12:55:53.435Z,15.23
2023-04-29T12:58:20.473Z,17.20
2023-04-29T13:00:47.239Z,16.20
2023-04-29T13:03:14.593Z,15.93
2023-04-29T13:05:42.247Z,17.03
2023-04-29T13:08:09.224Z,16.43
2023-04-29T13:10:36.131Z,17.00
2023-04-29T13:13:02.840Z,17.60
2023-04-29T13:15:29.525Z,17.30
2023-04-29T13:17:57.314Z,18.03
2023-04-29T13:20:24.134Z,18.30
2023-04-29T13:22:51.822Z,16.20
2023-04-29T13:25:18.646Z,16.40
2023-04-29T13:27:45.568Z,15.43
2023-04-29T13:30:12.507Z,16.67
2023-04-29T13:32:45.956Z,16.30
2023-04-29T13:35:18.443Z,15.60
2023-04-29T13:37:45.201Z,15.83
2023-04-29T13:40:20.002Z,15.37
2023-04-29T13:42:50.063Z,16.53
2023-04-29T13:45:19.964Z,15.90
2023-04-29T13:48:06.858Z,15.97
2023-04-29T13:53:35.795Z,14.47
2023-04-29T13:56:41.172Z,13.73
2023-04-29T14:01:37.727Z,14.17
2023-04-29T14:03:53.056Z,14.60
2023-04-29T14:06:19.935Z,13.90
2023-04-29T14:08:46.681Z,14.33
2023-04-29T14:11:13.537Z,13.67
2023-04-29T14:13:40.437Z,14.50
2023-04-29T14:16:07.442Z,11.93
2023-04-29T14:18:34.161Z,12.47
2023-04-29T14:21:00.944Z,12.93
2023-04-29T14:23:27.741Z,13.33
2023-04-29T14:26:06.258Z,13.03
2023-04-29T14:28:42.152Z,12.10
2023-04-29T14:31:09.056Z,11.63
2023-04-29T14:33:36.042Z,11.10
2023-04-29T14:36:02.741Z,11.17
2023-04-29T14:38:29.610Z,11.37
2023-04-29T14:40:56.653Z,11.50
2023-04-29T14:43:23.482Z,11.40
2023-04-29T14:45:50.374Z,11.50
2023-04-29T14:48:17.149Z,12.47
2023-04-29T14:50:43.804Z,11.47
2023-04-29T14:53:10.555Z,11.43
2023-04-29T14:55:39.343Z,10.53
2023-04-29T14:58:06.125Z,11.53
2023-04-29T15:00:33.092Z,11.40
2023-04-29T15:03:01.944Z,10.30
2023-04-29T15:05:31.140Z,11.07
2023-04-29T15:08:02.173Z,10.80
2023-04-29T15:10:28.931Z,12.27
2023-04-29T15:12:55.828Z,12.57
2023-04-29T15:15:23.314Z,12.73
2023-04-29T15:17:50.088Z,11.73
2023-04-29T15:20:16.974Z,12.17
2023-04-29T15:22:43.902Z,11.53
2023-04-29T15:25:12.290Z,11.47
2023-04-29T15:27:39.450Z,11.83
2023-04-29T15:30:06.927Z,12.33
2023-04-29T15:32:33.738Z,13.27
2023-04-29T15:35:01.735Z,14.80
2023-04-29T15:37:28.835Z,13.00
2023-04-29T15:39:55.959Z,11.60
2023-04-29T15:42:22.803Z,13.07
2023-04-29T15:44:49.686Z,12.47
2023-04-29T15:47:16.947Z,14.43
2023-04-29T15:49:45.072Z,12.47
2023-04-29T15:52:12.098Z,13.63
2023-04-29T15:54:38.791Z,12.90
2023-04-29T15:57:05.532Z,13.07
2023-04-29T15:59:32.356Z,12.83
2023-04-29T16:01:59.042Z,12.40
2023-04-29T16:04:25.671Z,12.40
2023-04-29T16:06:52.870Z,11.33
2023-04-29T16:09:19.653Z,13.50
2023-04-29T16:11:46.336Z,12.37
2023-04-29T16:14:13.201Z,12.67
2023-04-29T16:16:40.001Z,13.10
2023-04-29T16:19:07.471Z,13.10
2023-04-29T16:21:34.202Z,12.57
2023-04-29T16:24:05.786Z,12.43
2023-04-29T16:26:33.486Z,11.77
2023-04-29T16:29:00.622Z,12.57
2023-04-29T16:31:28.467Z,12.03
2023-04-29T16:33:57.259Z,12.40
2023-04-29T16:36:24.332Z,11.83
2023-04-29T16:38:51.733Z,12.53
2023-04-29T16:41:18.867Z,13.07
2023-04-29T16:43:45.832Z,13.00
2023-04-29T16:46:12.632Z,13.90
2023-04-29T16:48:39.353Z,12.80
2023-04-29T16:51:06.105Z,12.10
2023-04-29T16:53:32.936Z,11.77
2023-04-29T16:55:59.676Z,12.60
2023-04-29T16:58:26.821Z,13.10
2023-04-29T17:00:53.881Z,13.07
2023-04-29T17:03:20.594Z,13.17
2023-04-29T17:05:48.820Z,13.20
2023-04-29T17:08:15.581Z,13.27
2023-04-29T17:10:42.264Z,13.23
2023-04-29T17:13:09.030Z,14.20
2023-04-29T17:15:35.756Z,14.00
2023-04-29T17:18:03.134Z,12.73
2023-04-29T17:20:29.910Z,13.57
2023-04-29T17:22:56.617Z,12.17
2023-04-29T17:25:23.633Z,12.37
2023-04-29T17:27:50.279Z,11.80
2023-04-29T17:30:17.123Z,11.80
2023-04-29T17:32:44.607Z,12.30
2023-04-29T17:35:11.957Z,11.47
2023-04-29T17:37:38.629Z,11.70
2023-04-29T17:40:08.383Z,10.63
2023-04-29T17:42:35.188Z,10.73
2023-04-29T17:45:02.001Z,11.20
2023-04-29T17:47:28.838Z,11.03
2023-04-29T17:49:56.928Z,11.13
2023-04-29T17:52:25.036Z,11.20
2023-04-29T17:54:51.801Z,10.70
2023-04-29T17:57:18.477Z,11.83
2023-04-29T17:59:45.233Z,12.10
2023-04-29T18:02:11.930Z,12.60
2023-04-29T18:04:40.736Z,11.93
2023-04-29T18:07:07.475Z,12.57
2023-04-29T18:09:35.060Z,12.37
2023-04-29T18:12:02.512Z,13.57
2023-04-29T18:14:30.747Z,13.67
2023-04-29T18:16:59.319Z,12.03
2023-04-29T18:19:26.181Z,13.80
2023-04-29T18:21:54.217Z,12.10
2023-04-29T18:24:20.919Z,12.10
2023-04-29T18:26:47.631Z,12.27
2023-04-29T18:29:14.258Z,12.80
2023-04-29T18:31:41.497Z,12.63
2023-04-29T18:34:09.288Z,12.20
2023-04-29T18:36:35.939Z,13.33
2023-04-29T18:39:02.660Z,13.73
2023-04-29T18:41:29.372Z,14.10
2023-04-29T18:43:56.433Z,13.20
2023-04-29T18:46:23.531Z,14.50
2023-04-29T18:48:50.355Z,13.63
2023-04-29T18:51:17.234Z,15.30
2023-04-29T18:53:43.920Z,14.93
2023-04-29T18:56:10.915Z,14.67
2023-04-29T18:58:37.752Z,15.30
2023-04-29T19:01:04.570Z,15.00
2023-04-29T19:03:31.710Z,14.20
2023-04-29T19:06:00.068Z,14.23
2023-04-29T19:08:27.168Z,16.60
2023-04-29T19:10:54.487Z,15.33
2023-04-29T19:13:21.375Z,15.90
2023-04-29T19:15:50.983Z,17.03
2023-04-29T19:18:20.186Z,15.73
2023-04-29T19:20:47.248Z,15.67
2023-04-29T19:23:14.065Z,16.17
2023-04-29T19:25:40.839Z,16.40
2023-04-29T19:28:07.529Z,17.80
2023-04-29T19:30:34.953Z,16.73
2023-04-29T19:33:01.742Z,17.80
2023-04-29T19:35:28.514Z,18.37
2023-04-29T19:37:55.399Z,18.50
2023-04-29T19:40:22.111Z,19.47
2023-04-29T19:42:48.805Z,18.80
2023-04-29T19:45:15.901Z,19.10
2023-04-29T19:47:42.770Z,19.53
2023-04-29T19:50:10.493Z,20.37
2023-04-29T19:52:37.400Z,18.47
2023-04-29T19:55:05.046Z,20.30
2023-04-29T19:57:32.222Z,20.47
2023-04-29T19:59:58.995Z,20.67
2023-04-29T20:02:26.571Z,20.17
2023-04-29T20:04:53.354Z,21.47
2023-04-29T20:07:20.157Z,22.43
2023-04-29T20:09:47.953Z,22.07
2023-04-29T20:12:14.769Z,23.37
2023-04-29T20:14:42.048Z,22.57
2023-04-29T20:17:08.787Z,23.63
2023-04-29T20:19:35.568Z,24.30
2023-04-29T20:22:02.440Z,23.53
2023-04-29T20:24:29.318Z,25.67
2023-04-29T20:26:56.189Z,26.23
2023-04-29T20:29:23.251Z,27.37
2023-04-29T20:31:49.982Z,26.53
2023-04-29T20:34:18.036Z,27.13
2023-04-29T20:36:44.873Z,25.53
2023-04-29T20:39:11.639Z,26.53
2023-04-29T20:41:38.873Z,26.50
2023-04-29T20:44:05.624Z,25.30
2023-04-29T20:46:32.823Z,23.90
2023-04-29T20:48:59.689Z,24.50
2023-04-29T20:51:26.996Z,24.63
2023-04-29T20:53:53.770Z,24.03
2023-04-29T20:56:20.481Z,23.93
2023-04-29T20:58:47.245Z,25.73
2023-04-29T21:01:14.174Z,24.57
2023-04-29T21:03:40.932Z,25.87
2023-04-29T21:06:07.925Z,25.00
2023-04-29T21:08:34.733Z,25.07
2023-04-29T21:11:02.027Z,24.00
2023-04-29T21:13:28.822Z,24.53
2023-04-29T21:15:55.573Z,23.83
2023-04-29T21:18:22.435Z,24.73
2023-04-29T21:20:49.179Z,24.13
2023-04-29T21:23:16.075Z,26.30
2023-04-29T21:25:42.752Z,24.63
2023-04-29T21:28:09.566Z,24.73
2023-04-29T21:30:37.000Z,25.73
2023-04-29T21:33:03.818Z,23.80
2023-04-29T21:35:30.856Z,24.60
2023-04-29T21:37:57.669Z,24.97
2023-04-29T21:40:26.641Z,25.50
2023-04-29T21:42:55.411Z,25.00
2023-04-29T21:45:22.264Z,24.23
2023-04-29T21:47:49.108Z,25.83
2023-04-29T21:50:15.896Z,25.60
2023-04-29T21:52:42.743Z,26.70
2023-04-29T21:55:09.565Z,26.80
2023-04-29T21:57:44.210Z,28.07
2023-04-29T22:00:28.292Z,26.37
2023-04-29T22:02:55.063Z,27.13
2023-04-29T22:05:21.800Z,28.00
2023-04-29T22:07:48.941Z,26.60
2023-04-29T22:10:15.795Z,27.50
2023-04-29T22:12:42.586Z,27.90
2023-04-29T22:15:20.641Z,27.20
2023-04-29T22:17:54.441Z,27.73
2023-04-29T22:20:21.409Z,27.17
2023-04-29T22:22:48.253Z,27.87
2023-04-29T22:25:15.204Z,26.57
2023-04-29T22:27:41.943Z,28.47
2023-04-29T22:30:09.016Z,29.10
2023-04-29T22:32:36.091Z,29.37
2023-04-29T22:35:02.960Z,28.27
2023-04-29T22:37:30.457Z,29.10
2023-04-29T22:39:57.322Z,29.03
2023-04-29T22:42:24.125Z,30.73
2023-04-29T22:44:51.305Z,28.87
2023-04-29T22:47:17.984Z,30.00
2023-04-29T22:49:44.765Z,28.67
2023-04-29T22:52:11.453Z,29.13
2023-04-29T22:54:38.267Z,30.00
2023-04-29T22:57:05.246Z,28.00
2023-04-29T22:59:32.008Z,29.90
2023-04-29T23:01:58.724Z,29.17
2023-04-29T23:04:25.697Z,29.10
2023-04-29T23:06:52.778Z,29.77
2023-04-29T23:09:19.527Z,28.50
2023-04-29T23:11:46.292Z,29.83
2023-04-29T23:14:12.988Z,27.90
2023-04-29T23:16:39.632Z,28.97
2023-04-29T23:19:06.641Z,29.17
2023-04-29T23:21:33.370Z,29.57
2023-04-29T23:24:00.177Z,29.40
2023-04-29T23:26:26.886Z,29.03
2023-04-29T23:28:53.981Z,29.53
2023-04-29T23:31:20.987Z,31.27
2023-04-29T23:33:47.877Z,30.67
2023-04-29T23:36:14.560Z,30.00
2023-04-29T23:38:42.197Z,32.00
2023-04-29T23:41:08.917Z,31.87
2023-04-29T23:43:35.689Z,30.90
2023-04-29T23:46:02.473Z,30.90
2023-04-29T23:48:29.278Z,30.97
2023-04-29T23:50:56.067Z,31.83
2023-04-29T23:53:22.795Z,31.03
2023-04-29T23:55:49.961Z,32.07
2023-04-29T23:58:16.695Z,30.77
